sensor_id;sensor_type;location;lat;lon;timestamp;P1;durP1;ratioP1;P2;durP2;ratioP2
47481;SDS011;33219;47.410;9.730;2023-03-23T00:00:47;5.97;;;3.12;;
47481;SDS011;33219;47.410;9.730;2023-03-23T00:03:15;4.90;;;3.30;;
47481;SDS011;33219;47.410;9.730;2023-03-23T00:05:43;6.58;;;3.20;;
47481;SDS011;33219;47.410;9.730;2023-03-23T00:08:12;5.42;;;3.55;;
47481;SDS011;33219;47.410;9.730;2023-03-23T00:10:41;7.78;;;4.20;;
47481;SDS011;33219;47.410;9.730;2023-03-23T00:13:08;7.42;;;4.70;;
47481;SDS011;33219;47.410;9.730;2023-03-23T00:15:37;7.12;;;5.40;;
47481;SDS011;33219;47.410;9.730;2023-03-23T00:18:06;8.63;;;4.80;;
47481;SDS011;33219;47.410;9.730;2023-03-23T00:20:34;6.72;;;4.80;;
47481;SDS011;33219;47.410;9.730;2023-03-23T00:23:03;7.05;;;4.37;;
47481;SDS011;33219;47.410;9.730;2023-03-23T00:25:31;5.17;;;3.98;;
47481;SDS011;33219;47.410;9.730;2023-03-23T00:27:59;8.48;;;4.20;;
47481;SDS011;33219;47.410;9.730;2023-03-23T00:30:26;5.35;;;4.00;;
47481;SDS011;33219;47.410;9.730;2023-03-23T00:32:55;5.22;;;3.85;;
47481;SDS011;33219;47.410;9.730;2023-03-23T00:35:23;10.82;;;4.95;;
47481;SDS011;33219;47.410;9.730;2023-03-23T00:37:52;9.08;;;4.53;;
47481;SDS011;33219;47.410;9.730;2023-03-23T00:40:21;8.28;;;4.87;;
47481;SDS011;33219;47.410;9.730;2023-03-23T00:42:48;8.30;;;4.37;;
47481;SDS011;33219;47.410;9.730;2023-03-23T00:45:16;6.28;;;4.42;;
47481;SDS011;33219;47.410;9.730;2023-03-23T00:47:44;8.35;;;4.50;;
47481;SDS011;33219;47.410;9.730;2023-03-23T00:50:12;7.20;;;4.75;;
47481;SDS011;33219;47.410;9.730;2023-03-23T00:52:40;11.43;;;4.78;;
47481;SDS011;33219;47.410;9.730;2023-03-23T00:55:08;7.10;;;4.60;;
47481;SDS011;33219;47.410;9.730;2023-03-23T00:57:36;8.68;;;4.67;;
47481;SDS011;33219;47.410;9.730;2023-03-23T01:00:03;9.13;;;4.60;;
47481;SDS011;33219;47.410;9.730;2023-03-23T01:02:33;5.72;;;3.95;;
47481;SDS011;33219;47.410;9.730;2023-03-23T01:05:01;6.42;;;3.95;;
47481;SDS011;33219;47.410;9.730;2023-03-23T01:07:29;4.75;;;3.60;;
47481;SDS011;33219;47.410;9.730;2023-03-23T01:09:57;5.97;;;3.33;;
47481;SDS011;33219;47.410;9.730;2023-03-23T01:12:26;6.08;;;3.50;;
47481;SDS011;33219;47.410;9.730;2023-03-23T01:14:53;7.28;;;4.30;;
47481;SDS011;33219;47.410;9.730;2023-03-23T01:17:21;6.42;;;4.00;;
47481;SDS011;33219;47.410;9.730;2023-03-23T01:19:49;6.37;;;3.70;;
47481;SDS011;33219;47.410;9.730;2023-03-23T01:22:16;5.28;;;3.77;;
47481;SDS011;33219;47.410;9.730;2023-03-23T01:24:44;8.08;;;4.10;;
47481;SDS011;33219;47.410;9.730;2023-03-23T01:27:11;5.97;;;3.72;;
47481;SDS011;33219;47.410;9.730;2023-03-23T01:29:39;5.30;;;3.58;;
47481;SDS011;33219;47.410;9.730;2023-03-23T01:32:07;5.45;;;3.75;;
47481;SDS011;33219;47.410;9.730;2023-03-23T01:34:34;7.40;;;4.40;;
47481;SDS011;33219;47.410;9.730;2023-03-23T01:37:03;7.75;;;4.10;;
47481;SDS011;33219;47.410;9.730;2023-03-23T01:39:30;7.80;;;4.08;;
47481;SDS011;33219;47.410;9.730;2023-03-23T01:41:58;8.20;;;4.45;;
47481;SDS011;33219;47.410;9.730;2023-03-23T01:47:02;5.33;;;3.90;;
47481;SDS011;33219;47.410;9.730;2023-03-23T01:49:33;8.80;;;4.62;;
47481;SDS011;33219;47.410;9.730;2023-03-23T01:52:09;6.80;;;4.50;;
47481;SDS011;33219;47.410;9.730;2023-03-23T01:54:44;7.25;;;4.60;;
47481;SDS011;33219;47.410;9.730;2023-03-23T01:57:14;7.87;;;4.08;;
47481;SDS011;33219;47.410;9.730;2023-03-23T01:59:43;5.95;;;4.17;;
47481;SDS011;33219;47.410;9.730;2023-03-23T02:02:14;7.67;;;4.35;;
47481;SDS011;33219;47.410;9.730;2023-03-23T02:04:42;6.70;;;4.20;;
47481;SDS011;33219;47.410;9.730;2023-03-23T02:07:12;6.17;;;4.25;;
47481;SDS011;33219;47.410;9.730;2023-03-23T02:09:42;6.75;;;4.55;;
47481;SDS011;33219;47.410;9.730;2023-03-23T02:12:09;7.10;;;4.40;;
47481;SDS011;33219;47.410;9.730;2023-03-23T02:14:37;6.70;;;4.30;;
47481;SDS011;33219;47.410;9.730;2023-03-23T02:30:37;7.50;;;5.10;;
47481;SDS011;33219;47.410;9.730;2023-03-23T02:33:29;10.08;;;4.80;;
47481;SDS011;33219;47.410;9.730;2023-03-23T02:39:02;7.85;;;4.60;;
47481;SDS011;33219;47.410;9.730;2023-03-23T02:41:31;11.20;;;4.72;;
47481;SDS011;33219;47.410;9.730;2023-03-23T02:44:04;8.40;;;4.65;;
47481;SDS011;33219;47.410;9.730;2023-03-23T02:46:33;6.08;;;4.42;;
47481;SDS011;33219;47.410;9.730;2023-03-23T02:49:03;6.67;;;4.53;;
47481;SDS011;33219;47.410;9.730;2023-03-23T02:51:32;7.87;;;4.72;;
47481;SDS011;33219;47.410;9.730;2023-03-23T02:54:01;6.75;;;4.33;;
47481;SDS011;33219;47.410;9.730;2023-03-23T02:56:31;5.80;;;4.08;;
47481;SDS011;33219;47.410;9.730;2023-03-23T02:58:59;6.25;;;3.92;;
47481;SDS011;33219;47.410;9.730;2023-03-23T03:03:59;6.60;;;4.10;;
47481;SDS011;33219;47.410;9.730;2023-03-23T03:11:52;6.33;;;4.28;;
47481;SDS011;33219;47.410;9.730;2023-03-23T03:14:27;6.20;;;4.20;;
47481;SDS011;33219;47.410;9.730;2023-03-23T03:17:02;7.83;;;4.60;;
47481;SDS011;33219;47.410;9.730;2023-03-23T03:19:35;8.63;;;4.70;;
47481;SDS011;33219;47.410;9.730;2023-03-23T03:22:07;6.15;;;4.42;;
47481;SDS011;33219;47.410;9.730;2023-03-23T03:24:36;7.62;;;4.25;;
47481;SDS011;33219;47.410;9.730;2023-03-23T03:27:04;6.05;;;4.58;;
47481;SDS011;33219;47.410;9.730;2023-03-23T03:29:36;7.87;;;4.50;;
47481;SDS011;33219;47.410;9.730;2023-03-23T03:32:08;5.25;;;3.92;;
47481;SDS011;33219;47.410;9.730;2023-03-23T03:34:37;7.95;;;4.37;;
47481;SDS011;33219;47.410;9.730;2023-03-23T03:37:05;6.72;;;4.70;;
47481;SDS011;33219;47.410;9.730;2023-03-23T03:39:36;5.92;;;4.20;;
47481;SDS011;33219;47.410;9.730;2023-03-23T03:42:04;6.45;;;4.47;;
47481;SDS011;33219;47.410;9.730;2023-03-23T03:44:32;5.65;;;4.30;;
47481;SDS011;33219;47.410;9.730;2023-03-23T03:47:00;6.62;;;4.60;;
47481;SDS011;33219;47.410;9.730;2023-03-23T03:49:28;5.42;;;4.50;;
47481;SDS011;33219;47.410;9.730;2023-03-23T03:51:56;7.80;;;4.28;;
47481;SDS011;33219;47.410;9.730;2023-03-23T03:54:24;6.37;;;4.10;;
47481;SDS011;33219;47.410;9.730;2023-03-23T03:56:52;6.55;;;4.50;;
47481;SDS011;33219;47.410;9.730;2023-03-23T03:59:21;7.70;;;4.47;;
47481;SDS011;33219;47.410;9.730;2023-03-23T04:01:49;8.73;;;4.50;;
47481;SDS011;33219;47.410;9.730;2023-03-23T04:04:18;5.90;;;4.17;;
47481;SDS011;33219;47.410;9.730;2023-03-23T04:06:47;7.65;;;4.62;;
47481;SDS011;33219;47.410;9.730;2023-03-23T04:09:15;9.08;;;4.65;;
47481;SDS011;33219;47.410;9.730;2023-03-23T04:11:45;7.22;;;4.20;;
47481;SDS011;33219;47.410;9.730;2023-03-23T04:14:12;7.62;;;4.33;;
47481;SDS011;33219;47.410;9.730;2023-03-23T04:16:40;10.15;;;4.97;;
47481;SDS011;33219;47.410;9.730;2023-03-23T04:19:09;8.08;;;4.72;;
47481;SDS011;33219;47.410;9.730;2023-03-23T04:21:38;5.20;;;3.90;;
47481;SDS011;33219;47.410;9.730;2023-03-23T04:24:06;6.53;;;4.62;;
47481;SDS011;33219;47.410;9.730;2023-03-23T04:26:33;6.60;;;4.55;;
47481;SDS011;33219;47.410;9.730;2023-03-23T04:29:01;6.45;;;4.55;;
47481;SDS011;33219;47.410;9.730;2023-03-23T04:31:29;7.25;;;4.75;;
47481;SDS011;33219;47.410;9.730;2023-03-23T04:33:57;7.75;;;5.60;;
47481;SDS011;33219;47.410;9.730;2023-03-23T04:36:27;9.45;;;5.92;;
47481;SDS011;33219;47.410;9.730;2023-03-23T04:38:55;7.25;;;5.28;;
47481;SDS011;33219;47.410;9.730;2023-03-23T04:41:23;6.58;;;5.08;;
47481;SDS011;33219;47.410;9.730;2023-03-23T04:43:50;6.28;;;4.90;;
47481;SDS011;33219;47.410;9.730;2023-03-23T04:46:19;7.37;;;5.12;;
47481;SDS011;33219;47.410;9.730;2023-03-23T04:48:47;6.80;;;4.80;;
47481;SDS011;33219;47.410;9.730;2023-03-23T04:51:15;7.65;;;4.72;;
47481;SDS011;33219;47.410;9.730;2023-03-23T04:53:42;7.45;;;5.08;;
47481;SDS011;33219;47.410;9.730;2023-03-23T04:56:10;7.20;;;4.97;;
47481;SDS011;33219;47.410;9.730;2023-03-23T04:58:39;10.32;;;5.12;;
47481;SDS011;33219;47.410;9.730;2023-03-23T05:01:07;7.20;;;4.90;;
47481;SDS011;33219;47.410;9.730;2023-03-23T05:03:34;9.38;;;5.42;;
47481;SDS011;33219;47.410;9.730;2023-03-23T05:06:02;7.90;;;5.20;;
47481;SDS011;33219;47.410;9.730;2023-03-23T05:08:30;7.20;;;5.15;;
47481;SDS011;33219;47.410;9.730;2023-03-23T05:10:59;9.03;;;5.50;;
47481;SDS011;33219;47.410;9.730;2023-03-23T05:13:27;9.28;;;4.80;;
47481;SDS011;33219;47.410;9.730;2023-03-23T05:15:55;10.98;;;5.28;;
47481;SDS011;33219;47.410;9.730;2023-03-23T05:18:23;9.13;;;5.12;;
47481;SDS011;33219;47.410;9.730;2023-03-23T05:20:51;7.20;;;5.15;;
47481;SDS011;33219;47.410;9.730;2023-03-23T05:23:19;7.70;;;5.42;;
47481;SDS011;33219;47.410;9.730;2023-03-23T05:25:55;7.85;;;5.00;;
47481;SDS011;33219;47.410;9.730;2023-03-23T05:28:26;8.50;;;4.97;;
47481;SDS011;33219;47.410;9.730;2023-03-23T05:30:54;9.18;;;5.20;;
47481;SDS011;33219;47.410;9.730;2023-03-23T05:33:22;9.23;;;4.95;;
47481;SDS011;33219;47.410;9.730;2023-03-23T05:35:49;10.00;;;5.58;;
47481;SDS011;33219;47.410;9.730;2023-03-23T05:38:17;10.72;;;5.50;;
47481;SDS011;33219;47.410;9.730;2023-03-23T05:40:45;9.28;;;5.12;;
47481;SDS011;33219;47.410;9.730;2023-03-23T05:43:13;9.33;;;5.00;;
47481;SDS011;33219;47.410;9.730;2023-03-23T05:45:40;9.15;;;5.60;;
47481;SDS011;33219;47.410;9.730;2023-03-23T05:48:08;8.45;;;5.50;;
47481;SDS011;33219;47.410;9.730;2023-03-23T05:50:35;8.70;;;5.72;;
47481;SDS011;33219;47.410;9.730;2023-03-23T05:53:03;11.08;;;5.60;;
47481;SDS011;33219;47.410;9.730;2023-03-23T05:55:31;7.67;;;5.30;;
47481;SDS011;33219;47.410;9.730;2023-03-23T05:57:59;10.08;;;5.85;;
47481;SDS011;33219;47.410;9.730;2023-03-23T06:00:26;7.92;;;5.87;;
47481;SDS011;33219;47.410;9.730;2023-03-23T06:02:56;11.08;;;5.55;;
47481;SDS011;33219;47.410;9.730;2023-03-23T06:05:24;11.97;;;5.85;;
47481;SDS011;33219;47.410;9.730;2023-03-23T06:07:51;8.00;;;5.20;;
47481;SDS011;33219;47.410;9.730;2023-03-23T06:10:19;10.05;;;5.67;;
47481;SDS011;33219;47.410;9.730;2023-03-23T06:12:48;9.25;;;5.72;;
47481;SDS011;33219;47.410;9.730;2023-03-23T06:15:17;10.98;;;5.55;;
47481;SDS011;33219;47.410;9.730;2023-03-23T06:17:44;12.13;;;6.15;;
47481;SDS011;33219;47.410;9.730;2023-03-23T06:20:12;9.48;;;5.95;;
47481;SDS011;33219;47.410;9.730;2023-03-23T06:22:40;9.95;;;6.05;;
47481;SDS011;33219;47.410;9.730;2023-03-23T06:25:13;13.93;;;6.75;;
47481;SDS011;33219;47.410;9.730;2023-03-23T06:27:43;13.35;;;6.83;;
47481;SDS011;33219;47.410;9.730;2023-03-23T06:30:12;11.70;;;7.05;;
47481;SDS011;33219;47.410;9.730;2023-03-23T06:32:42;14.03;;;7.35;;
47481;SDS011;33219;47.410;9.730;2023-03-23T06:35:12;12.33;;;6.58;;
47481;SDS011;33219;47.410;9.730;2023-03-23T06:37:41;12.78;;;6.65;;
47481;SDS011;33219;47.410;9.730;2023-03-23T06:40:09;13.13;;;6.20;;
47481;SDS011;33219;47.410;9.730;2023-03-23T06:42:43;11.90;;;6.15;;
47481;SDS011;33219;47.410;9.730;2023-03-23T06:45:41;7.25;;;5.10;;
47481;SDS011;33219;47.410;9.730;2023-03-23T06:54:07;9.58;;;5.17;;
47481;SDS011;33219;47.410;9.730;2023-03-23T06:56:48;8.23;;;5.12;;
47481;SDS011;33219;47.410;9.730;2023-03-23T06:59:36;9.38;;;5.20;;
47481;SDS011;33219;47.410;9.730;2023-03-23T07:02:12;11.85;;;5.78;;
47481;SDS011;33219;47.410;9.730;2023-03-23T07:04:47;17.10;;;7.60;;
47481;SDS011;33219;47.410;9.730;2023-03-23T07:07:21;14.93;;;7.22;;
47481;SDS011;33219;47.410;9.730;2023-03-23T07:09:59;11.30;;;7.25;;
47481;SDS011;33219;47.410;9.730;2023-03-23T07:12:34;7.65;;;5.05;;
47481;SDS011;33219;47.410;9.730;2023-03-23T07:15:12;9.73;;;5.00;;
47481;SDS011;33219;47.410;9.730;2023-03-23T07:17:48;9.58;;;5.45;;
47481;SDS011;33219;47.410;9.730;2023-03-23T07:20:22;10.70;;;4.90;;
47481;SDS011;33219;47.410;9.730;2023-03-23T07:22:55;9.33;;;5.45;;
47481;SDS011;33219;47.410;9.730;2023-03-23T07:25:29;8.85;;;5.40;;
47481;SDS011;33219;47.410;9.730;2023-03-23T07:28:04;10.25;;;5.08;;
47481;SDS011;33219;47.410;9.730;2023-03-23T07:30:37;8.85;;;5.58;;
47481;SDS011;33219;47.410;9.730;2023-03-23T07:33:12;9.55;;;5.30;;
47481;SDS011;33219;47.410;9.730;2023-03-23T07:35:46;9.58;;;5.65;;
47481;SDS011;33219;47.410;9.730;2023-03-23T07:38:27;9.88;;;5.42;;
47481;SDS011;33219;47.410;9.730;2023-03-23T07:41:10;8.70;;;5.17;;
47481;SDS011;33219;47.410;9.730;2023-03-23T07:58:52;6.03;;;4.60;;
47481;SDS011;33219;47.410;9.730;2023-03-23T08:05:20;8.13;;;4.70;;
47481;SDS011;33219;47.410;9.730;2023-03-23T08:13:27;7.53;;;4.90;;
47481;SDS011;33219;47.410;9.730;2023-03-23T08:38:03;7.08;;;5.35;;
47481;SDS011;33219;47.410;9.730;2023-03-23T08:41:26;9.30;;;6.30;;
47481;SDS011;33219;47.410;9.730;2023-03-23T08:47:31;8.93;;;5.42;;
47481;SDS011;33219;47.410;9.730;2023-03-23T08:55:13;10.13;;;5.78;;
47481;SDS011;33219;47.410;9.730;2023-03-23T08:57:54;8.70;;;5.60;;
47481;SDS011;33219;47.410;9.730;2023-03-23T09:00:39;10.53;;;5.37;;
47481;SDS011;33219;47.410;9.730;2023-03-23T09:03:29;9.10;;;5.30;;
47481;SDS011;33219;47.410;9.730;2023-03-23T09:06:07;8.10;;;4.78;;
47481;SDS011;33219;47.410;9.730;2023-03-23T09:08:40;9.15;;;5.33;;
47481;SDS011;33219;47.410;9.730;2023-03-23T09:11:14;6.47;;;4.87;;
47481;SDS011;33219;47.410;9.730;2023-03-23T09:17:19;8.75;;;5.25;;
47481;SDS011;33219;47.410;9.730;2023-03-23T09:20:13;8.85;;;5.15;;
47481;SDS011;33219;47.410;9.730;2023-03-23T09:22:49;9.10;;;5.03;;
47481;SDS011;33219;47.410;9.730;2023-03-23T09:25:23;7.03;;;5.20;;
47481;SDS011;33219;47.410;9.730;2023-03-23T09:28:00;8.93;;;5.40;;
47481;SDS011;33219;47.410;9.730;2023-03-23T09:30:42;7.65;;;5.42;;
47481;SDS011;33219;47.410;9.730;2023-03-23T09:33:25;7.90;;;5.90;;
47481;SDS011;33219;47.410;9.730;2023-03-23T09:36:09;7.78;;;5.30;;
47481;SDS011;33219;47.410;9.730;2023-03-23T09:38:48;9.85;;;5.70;;
47481;SDS011;33219;47.410;9.730;2023-03-23T09:47:08;7.92;;;6.03;;
47481;SDS011;33219;47.410;9.730;2023-03-23T09:49:42;7.97;;;5.65;;
47481;SDS011;33219;47.410;9.730;2023-03-23T09:52:16;8.20;;;5.65;;
47481;SDS011;33219;47.410;9.730;2023-03-23T09:54:50;8.70;;;5.78;;
47481;SDS011;33219;47.410;9.730;2023-03-23T09:57:41;9.95;;;6.22;;
47481;SDS011;33219;47.410;9.730;2023-03-23T10:05:41;10.08;;;6.50;;
47481;SDS011;33219;47.410;9.730;2023-03-23T10:08:27;7.30;;;5.60;;
47481;SDS011;33219;47.410;9.730;2023-03-23T10:13:50;9.43;;;6.00;;
47481;SDS011;33219;47.410;9.730;2023-03-23T10:16:40;9.85;;;6.28;;
47481;SDS011;33219;47.410;9.730;2023-03-23T10:19:27;10.32;;;6.10;;
47481;SDS011;33219;47.410;9.730;2023-03-23T10:22:11;8.05;;;5.87;;
47481;SDS011;33219;47.410;9.730;2023-03-23T10:27:26;9.80;;;6.30;;
47481;SDS011;33219;47.410;9.730;2023-03-23T10:47:52;7.42;;;4.83;;
47481;SDS011;33219;47.410;9.730;2023-03-23T10:50:25;6.00;;;4.20;;
47481;SDS011;33219;47.410;9.730;2023-03-23T10:52:59;6.80;;;4.55;;
47481;SDS011;33219;47.410;9.730;2023-03-23T10:55:42;6.80;;;4.47;;
47481;SDS011;33219;47.410;9.730;2023-03-23T10:58:23;7.28;;;4.40;;
47481;SDS011;33219;47.410;9.730;2023-03-23T11:04:30;8.93;;;4.77;;
47481;SDS011;33219;47.410;9.730;2023-03-23T11:40:22;5.42;;;3.80;;
47481;SDS011;33219;47.410;9.730;2023-03-23T11:51:12;6.83;;;4.50;;
47481;SDS011;33219;47.410;9.730;2023-03-23T11:57:05;6.35;;;3.70;;
47481;SDS011;33219;47.410;9.730;2023-03-23T11:59:41;5.92;;;3.85;;
47481;SDS011;33219;47.410;9.730;2023-03-23T12:05:30;4.72;;;3.50;;
47481;SDS011;33219;47.410;9.730;2023-03-23T12:08:20;7.20;;;3.55;;
47481;SDS011;33219;47.410;9.730;2023-03-23T12:14:21;6.65;;;3.87;;
47481;SDS011;33219;47.410;9.730;2023-03-23T12:17:17;4.83;;;3.35;;
47481;SDS011;33219;47.410;9.730;2023-03-23T12:20:03;5.83;;;3.77;;
47481;SDS011;33219;47.410;9.730;2023-03-23T12:28:37;3.45;;;2.17;;
47481;SDS011;33219;47.410;9.730;2023-03-23T12:38:09;5.00;;;2.02;;
47481;SDS011;33219;47.410;9.730;2023-03-23T12:40:48;3.55;;;2.15;;
47481;SDS011;33219;47.410;9.730;2023-03-23T12:43:33;3.35;;;2.22;;
47481;SDS011;33219;47.410;9.730;2023-03-23T12:49:14;4.97;;;2.90;;
47481;SDS011;33219;47.410;9.730;2023-03-23T12:51:51;4.55;;;3.05;;
47481;SDS011;33219;47.410;9.730;2023-03-23T12:54:37;2.98;;;2.20;;
47481;SDS011;33219;47.410;9.730;2023-03-23T12:57:13;3.33;;;2.40;;
47481;SDS011;33219;47.410;9.730;2023-03-23T13:00:29;2.90;;;2.00;;
47481;SDS011;33219;47.410;9.730;2023-03-23T13:02:28;3.08;;;2.12;;
47481;SDS011;33219;47.410;9.730;2023-03-23T13:05:05;3.62;;;2.40;;
47481;SDS011;33219;47.410;9.730;2023-03-23T13:08:09;6.20;;;2.58;;
47481;SDS011;33219;47.410;9.730;2023-03-23T13:10:52;4.00;;;2.30;;
47481;SDS011;33219;47.410;9.730;2023-03-23T13:19:03;4.12;;;2.20;;
47481;SDS011;33219;47.410;9.730;2023-03-23T13:22:14;3.85;;;2.22;;
47481;SDS011;33219;47.410;9.730;2023-03-23T13:24:51;3.62;;;1.90;;
47481;SDS011;33219;47.410;9.730;2023-03-23T13:27:27;5.53;;;2.10;;
47481;SDS011;33219;47.410;9.730;2023-03-23T13:30:03;5.37;;;2.00;;
47481;SDS011;33219;47.410;9.730;2023-03-23T13:32:37;4.70;;;2.02;;
47481;SDS011;33219;47.410;9.730;2023-03-23T13:35:17;3.00;;;1.92;;
47481;SDS011;33219;47.410;9.730;2023-03-23T13:37:48;3.25;;;2.20;;
47481;SDS011;33219;47.410;9.730;2023-03-23T13:40:26;3.17;;;2.00;;
47481;SDS011;33219;47.410;9.730;2023-03-23T13:42:58;3.75;;;2.10;;
47481;SDS011;33219;47.410;9.730;2023-03-23T13:50:54;3.02;;;2.20;;
47481;SDS011;33219;47.410;9.730;2023-03-23T13:53:28;3.67;;;2.12;;
47481;SDS011;33219;47.410;9.730;2023-03-23T13:56:15;2.72;;;2.10;;
47481;SDS011;33219;47.410;9.730;2023-03-23T13:58:48;3.12;;;2.10;;
47481;SDS011;33219;47.410;9.730;2023-03-23T14:01:31;3.70;;;2.00;;
47481;SDS011;33219;47.410;9.730;2023-03-23T14:04:06;2.70;;;1.65;;
47481;SDS011;33219;47.410;9.730;2023-03-23T14:06:43;4.05;;;2.15;;
47481;SDS011;33219;47.410;9.730;2023-03-23T14:12:04;4.10;;;2.10;;
47481;SDS011;33219;47.410;9.730;2023-03-23T14:17:22;3.00;;;1.95;;
47481;SDS011;33219;47.410;9.730;2023-03-23T14:19:53;2.87;;;2.00;;
47481;SDS011;33219;47.410;9.730;2023-03-23T14:22:19;3.12;;;1.87;;
47481;SDS011;33219;47.410;9.730;2023-03-23T14:24:51;5.28;;;2.35;;
47481;SDS011;33219;47.410;9.730;2023-03-23T14:27:22;3.20;;;2.15;;
47481;SDS011;33219;47.410;9.730;2023-03-23T14:29:59;3.85;;;2.00;;
47481;SDS011;33219;47.410;9.730;2023-03-23T14:32:30;5.97;;;1.87;;
47481;SDS011;33219;47.410;9.730;2023-03-23T14:35:04;4.67;;;2.00;;
47481;SDS011;33219;47.410;9.730;2023-03-23T14:37:40;4.28;;;2.10;;
47481;SDS011;33219;47.410;9.730;2023-03-23T14:40:10;4.03;;;2.10;;
47481;SDS011;33219;47.410;9.730;2023-03-23T14:42:45;3.20;;;1.85;;
47481;SDS011;33219;47.410;9.730;2023-03-23T14:45:16;3.42;;;1.90;;
47481;SDS011;33219;47.410;9.730;2023-03-23T14:47:49;3.55;;;2.20;;
47481;SDS011;33219;47.410;9.730;2023-03-23T14:50:28;2.58;;;2.00;;
47481;SDS011;33219;47.410;9.730;2023-03-23T14:56:03;6.20;;;2.35;;
47481;SDS011;33219;47.410;9.730;2023-03-23T14:58:44;3.85;;;2.00;;
47481;SDS011;33219;47.410;9.730;2023-03-23T15:01:18;3.72;;;2.20;;
47481;SDS011;33219;47.410;9.730;2023-03-23T15:03:53;3.33;;;2.37;;
47481;SDS011;33219;47.410;9.730;2023-03-23T15:06:18;3.70;;;2.15;;
47481;SDS011;33219;47.410;9.730;2023-03-23T15:08:48;4.25;;;2.00;;
47481;SDS011;33219;47.410;9.730;2023-03-23T15:13:53;3.60;;;2.20;;
47481;SDS011;33219;47.410;9.730;2023-03-23T15:16:28;4.42;;;2.20;;
47481;SDS011;33219;47.410;9.730;2023-03-23T15:19:02;3.62;;;2.25;;
47481;SDS011;33219;47.410;9.730;2023-03-23T15:21:32;3.80;;;2.20;;
47481;SDS011;33219;47.410;9.730;2023-03-23T15:24:01;3.80;;;2.27;;
47481;SDS011;33219;47.410;9.730;2023-03-23T15:32:45;5.15;;;2.45;;
47481;SDS011;33219;47.410;9.730;2023-03-23T15:35:13;4.17;;;2.40;;
47481;SDS011;33219;47.410;9.730;2023-03-23T15:37:44;4.08;;;2.40;;
47481;SDS011;33219;47.410;9.730;2023-03-23T15:40:22;3.40;;;2.30;;
47481;SDS011;33219;47.410;9.730;2023-03-23T15:42:48;4.87;;;2.55;;
47481;SDS011;33219;47.410;9.730;2023-03-23T15:45:22;4.92;;;2.60;;
47481;SDS011;33219;47.410;9.730;2023-03-23T15:47:53;3.25;;;2.20;;
47481;SDS011;33219;47.410;9.730;2023-03-23T15:52:55;4.58;;;2.60;;
47481;SDS011;33219;47.410;9.730;2023-03-23T15:57:57;3.62;;;2.35;;
47481;SDS011;33219;47.410;9.730;2023-03-23T16:00:25;5.00;;;2.40;;
47481;SDS011;33219;47.410;9.730;2023-03-23T16:02:58;3.45;;;2.40;;
47481;SDS011;33219;47.410;9.730;2023-03-23T16:05:28;4.80;;;2.85;;
47481;SDS011;33219;47.410;9.730;2023-03-23T16:07:56;4.10;;;3.00;;
47481;SDS011;33219;47.410;9.730;2023-03-23T16:10:24;5.20;;;2.98;;
47481;SDS011;33219;47.410;9.730;2023-03-23T16:12:53;5.53;;;3.30;;
47481;SDS011;33219;47.410;9.730;2023-03-23T16:15:20;4.70;;;3.12;;
47481;SDS011;33219;47.410;9.730;2023-03-23T16:24:32;7.90;;;3.10;;
47481;SDS011;33219;47.410;9.730;2023-03-23T16:27:00;6.65;;;2.80;;
47481;SDS011;33219;47.410;9.730;2023-03-23T16:29:28;4.92;;;2.70;;
47481;SDS011;33219;47.410;9.730;2023-03-23T16:31:55;3.83;;;2.50;;
47481;SDS011;33219;47.410;9.730;2023-03-23T16:34:23;4.30;;;2.67;;
47481;SDS011;33219;47.410;9.730;2023-03-23T16:36:52;5.47;;;2.62;;
47481;SDS011;33219;47.410;9.730;2023-03-23T16:39:21;5.58;;;2.90;;
47481;SDS011;33219;47.410;9.730;2023-03-23T16:41:48;5.83;;;2.52;;
47481;SDS011;33219;47.410;9.730;2023-03-23T16:44:16;4.05;;;2.70;;
47481;SDS011;33219;47.410;9.730;2023-03-23T16:46:44;5.87;;;2.72;;
47481;SDS011;33219;47.410;9.730;2023-03-23T16:49:11;6.12;;;2.70;;
47481;SDS011;33219;47.410;9.730;2023-03-23T16:51:42;5.05;;;2.40;;
47481;SDS011;33219;47.410;9.730;2023-03-23T16:54:10;4.87;;;2.60;;
47481;SDS011;33219;47.410;9.730;2023-03-23T16:56:37;4.03;;;2.40;;
47481;SDS011;33219;47.410;9.730;2023-03-23T16:59:05;4.97;;;3.20;;
47481;SDS011;33219;47.410;9.730;2023-03-23T17:01:33;4.85;;;2.87;;
47481;SDS011;33219;47.410;9.730;2023-03-23T17:04:00;5.22;;;3.10;;
47481;SDS011;33219;47.410;9.730;2023-03-23T17:06:32;7.53;;;3.10;;
47481;SDS011;33219;47.410;9.730;2023-03-23T17:09:00;6.92;;;3.52;;
47481;SDS011;33219;47.410;9.730;2023-03-23T17:11:27;4.87;;;3.00;;
47481;SDS011;33219;47.410;9.730;2023-03-23T17:13:55;6.58;;;3.45;;
47481;SDS011;33219;47.410;9.730;2023-03-23T17:16:23;5.08;;;2.90;;
47481;SDS011;33219;47.410;9.730;2023-03-23T17:18:51;5.90;;;3.27;;
47481;SDS011;33219;47.410;9.730;2023-03-23T17:21:19;5.28;;;3.52;;
47481;SDS011;33219;47.410;9.730;2023-03-23T17:23:48;8.80;;;3.30;;
47481;SDS011;33219;47.410;9.730;2023-03-23T17:26:16;5.92;;;3.35;;
47481;SDS011;33219;47.410;9.730;2023-03-23T17:28:44;5.60;;;3.05;;
47481;SDS011;33219;47.410;9.730;2023-03-23T17:31:12;5.08;;;3.00;;
47481;SDS011;33219;47.410;9.730;2023-03-23T17:33:40;7.08;;;3.00;;
47481;SDS011;33219;47.410;9.730;2023-03-23T17:36:08;6.25;;;3.00;;
47481;SDS011;33219;47.410;9.730;2023-03-23T17:38:36;7.55;;;3.37;;
47481;SDS011;33219;47.410;9.730;2023-03-23T17:41:04;8.15;;;4.15;;
47481;SDS011;33219;47.410;9.730;2023-03-23T17:43:33;11.20;;;5.67;;
47481;SDS011;33219;47.410;9.730;2023-03-23T17:46:01;7.40;;;3.47;;
47481;SDS011;33219;47.410;9.730;2023-03-23T17:48:29;6.35;;;3.40;;
47481;SDS011;33219;47.410;9.730;2023-03-23T17:50:57;9.75;;;4.22;;
47481;SDS011;33219;47.410;9.730;2023-03-23T17:53:27;9.18;;;3.50;;
47481;SDS011;33219;47.410;9.730;2023-03-23T17:55:56;5.50;;;3.12;;
47481;SDS011;33219;47.410;9.730;2023-03-23T17:58:28;5.37;;;3.60;;
47481;SDS011;33219;47.410;9.730;2023-03-23T18:00:56;8.13;;;3.47;;
47481;SDS011;33219;47.410;9.730;2023-03-23T18:03:24;5.17;;;3.25;;
47481;SDS011;33219;47.410;9.730;2023-03-23T18:05:57;7.25;;;3.92;;
47481;SDS011;33219;47.410;9.730;2023-03-23T18:08:25;6.25;;;4.45;;
47481;SDS011;33219;47.410;9.730;2023-03-23T18:10:53;8.48;;;3.85;;
47481;SDS011;33219;47.410;9.730;2023-03-23T18:13:24;4.75;;;3.00;;
47481;SDS011;33219;47.410;9.730;2023-03-23T18:15:54;6.33;;;2.75;;
47481;SDS011;33219;47.410;9.730;2023-03-23T18:18:24;5.67;;;2.95;;
47481;SDS011;33219;47.410;9.730;2023-03-23T18:20:57;6.40;;;3.37;;
47481;SDS011;33219;47.410;9.730;2023-03-23T18:23:30;7.80;;;3.98;;
47481;SDS011;33219;47.410;9.730;2023-03-23T18:26:00;9.53;;;4.60;;
47481;SDS011;33219;47.410;9.730;2023-03-23T18:28:30;9.05;;;5.15;;
47481;SDS011;33219;47.410;9.730;2023-03-23T18:31:02;13.70;;;6.15;;
47481;SDS011;33219;47.410;9.730;2023-03-23T18:33:32;11.45;;;6.33;;
47481;SDS011;33219;47.410;9.730;2023-03-23T18:36:02;43.42;;;20.80;;
47481;SDS011;33219;47.410;9.730;2023-03-23T18:38:32;22.00;;;12.18;;
47481;SDS011;33219;47.410;9.730;2023-03-23T18:41:00;18.92;;;9.85;;
47481;SDS011;33219;47.410;9.730;2023-03-23T18:43:30;13.43;;;8.33;;
47481;SDS011;33219;47.410;9.730;2023-03-23T18:45:59;12.95;;;7.87;;
47481;SDS011;33219;47.410;9.730;2023-03-23T18:48:28;17.55;;;8.88;;
47481;SDS011;33219;47.410;9.730;2023-03-23T18:50:57;14.13;;;7.12;;
47481;SDS011;33219;47.410;9.730;2023-03-23T18:53:26;15.40;;;7.72;;
47481;SDS011;33219;47.410;9.730;2023-03-23T18:56:04;15.25;;;8.25;;
47481;SDS011;33219;47.410;9.730;2023-03-23T18:58:32;15.68;;;9.90;;
47481;SDS011;33219;47.410;9.730;2023-03-23T19:01:02;13.72;;;6.83;;
47481;SDS011;33219;47.410;9.730;2023-03-23T19:03:32;9.68;;;5.20;;
47481;SDS011;33219;47.410;9.730;2023-03-23T19:06:01;5.87;;;3.50;;
47481;SDS011;33219;47.410;9.730;2023-03-23T19:08:29;5.35;;;2.80;;
47481;SDS011;33219;47.410;9.730;2023-03-23T19:10:58;4.80;;;3.00;;